createdAt,value
2023-07-31T00:01:12.798Z,16.52
2023-07-31T00:03:55.187Z,16.38
2023-07-31T00:06:29.226Z,16.79
2023-07-31T00:09:17.488Z,17.01
2023-07-31T00:11:56.059Z,17.83
2023-07-31T00:14:42.858Z,17.47
2023-07-31T00:17:16.739Z,17.31
2023-07-31T00:20:19.813Z,16.44
2023-07-31T00:22:59.824Z,17.39
2023-07-31T00:25:41.469Z,17.86
2023-07-31T00:31:07.379Z,17.84
2023-07-31T00:34:06.391Z,17.81
2023-07-31T00:36:47.522Z,16.77
2023-07-31T00:42:31.599Z,17.84
2023-07-31T00:45:14.617Z,16.91
2023-07-31T00:48:00.420Z,17.86
2023-07-31T00:53:27.070Z,16.77
2023-07-31T00:56:02.166Z,17.14
2023-07-31T00:58:39.434Z,17.78
2023-07-31T01:01:10.627Z,16.28
2023-07-31T01:03:40.249Z,17.32
2023-07-31T01:06:45.368Z,17.86
2023-07-31T01:09:56.674Z,16.88
2023-07-31T01:12:35.931Z,17.86
2023-07-31T01:15:15.472Z,17.11
2023-07-31T01:17:46.902Z,16.97
2023-07-31T01:20:28.996Z,16.29
2023-07-31T01:23:32.585Z,17.84
2023-07-31T01:26:41.652Z,16.96
2023-07-31T01:29:22.247Z,16.75
2023-07-31T01:32:05.741Z,16.81
2023-07-31T01:34:37.182Z,16.82
2023-07-31T01:37:05.882Z,16.17
2023-07-31T01:39:35.669Z,17.77
2023-07-31T01:42:05.009Z,17.13
2023-07-31T01:44:34.281Z,17.77
2023-07-31T01:47:01.465Z,17.76
2023-07-31T01:49:28.355Z,17.48
2023-07-31T01:51:55.322Z,17.46
2023-07-31T01:54:22.371Z,17.34
2023-07-31T01:56:49.170Z,17.00
2023-07-31T01:59:18.702Z,17.25
2023-07-31T02:01:45.391Z,17.45
2023-07-31T02:04:15.497Z,17.41
2023-07-31T02:06:42.541Z,16.98
2023-07-31T02:09:11.038Z,17.78
2023-07-31T02:11:42.109Z,17.76
2023-07-31T02:14:27.592Z,17.80
2023-07-31T02:17:11.165Z,16.53
2023-07-31T02:19:54.578Z,16.91
2023-07-31T02:22:34.660Z,16.27
2023-07-31T02:25:05.711Z,17.00
2023-07-31T02:27:37.639Z,17.74
2023-07-31T02:30:15.575Z,17.66
2023-07-31T02:32:42.658Z,17.75
2023-07-31T02:35:09.983Z,17.06
2023-07-31T02:37:57.214Z,16.24
2023-07-31T02:40:29.793Z,16.88
2023-07-31T02:43:00.584Z,16.73
2023-07-31T02:45:35.351Z,17.55
2023-07-31T02:48:02.102Z,17.60
2023-07-31T02:50:29.979Z,17.40
2023-07-31T02:52:57.318Z,17.60
2023-07-31T02:55:29.862Z,17.56
2023-07-31T02:57:57.221Z,17.54
2023-07-31T03:00:24.272Z,16.83
2023-07-31T03:03:02.235Z,17.51
2023-07-31T03:05:45.308Z,17.50
2023-07-31T03:08:22.219Z,17.48
2023-07-31T03:10:54.231Z,17.02
2023-07-31T03:13:28.429Z,16.05
2023-07-31T03:16:15.099Z,16.27
2023-07-31T03:18:46.270Z,16.11
2023-07-31T03:21:52.546Z,15.97
2023-07-31T03:24:36.583Z,16.94
2023-07-31T03:27:09.318Z,17.45
2023-07-31T03:29:36.235Z,16.95
2023-07-31T03:32:03.653Z,16.81
2023-07-31T03:34:30.895Z,17.37
2023-07-31T03:37:01.794Z,16.57
2023-07-31T03:39:49.283Z,17.36
2023-07-31T03:42:23.769Z,17.35
2023-07-31T03:44:59.959Z,15.64
2023-07-31T03:47:32.230Z,16.42
2023-07-31T03:50:19.325Z,17.31
2023-07-31T03:52:56.406Z,17.31
2023-07-31T03:55:34.551Z,16.02
2023-07-31T03:58:07.087Z,15.68
2023-07-31T04:00:44.503Z,17.49
2023-07-31T04:03:20.029Z,16.04
2023-07-31T04:05:53.156Z,16.74
2023-07-31T04:08:35.942Z,17.35
2023-07-31T04:11:07.324Z,16.33
2023-07-31T04:19:44.736Z,17.19
2023-07-31T04:22:28.786Z,16.82
2023-07-31T04:25:12.089Z,17.13
2023-07-31T04:27:39.152Z,16.19
2023-07-31T04:33:02.632Z,17.22
2023-07-31T04:35:32.708Z,17.14
2023-07-31T04:37:59.594Z,16.96
2023-07-31T04:40:26.880Z,16.94
2023-07-31T04:42:54.949Z,17.50
2023-07-31T04:45:24.170Z,16.94
2023-07-31T04:47:53.803Z,17.00
2023-07-31T04:50:20.843Z,17.29
2023-07-31T04:52:49.885Z,17.14
2023-07-31T04:55:19.032Z,16.72
2023-07-31T04:57:47.740Z,17.48
2023-07-31T05:00:14.746Z,17.48
2023-07-31T05:02:41.955Z,16.99
2023-07-31T05:05:09.763Z,17.39
2023-07-31T05:07:36.530Z,17.37
2023-07-31T05:10:03.684Z,17.49
2023-07-31T05:12:33.822Z,17.48
2023-07-31T05:15:01.291Z,17.45
2023-07-31T05:17:29.915Z,17.39
2023-07-31T05:19:59.886Z,17.17
2023-07-31T05:22:41.358Z,17.45
2023-07-31T05:25:26.636Z,16.57
2023-07-31T05:28:12.487Z,17.17
2023-07-31T05:30:47.526Z,15.84
2023-07-31T05:33:17.643Z,17.52
2023-07-31T05:35:49.819Z,16.12
2023-07-31T05:38:25.103Z,17.53
2023-07-31T05:43:49.679Z,17.53
2023-07-31T05:47:06.600Z,17.00
2023-07-31T05:52:25.985Z,17.15
2023-07-31T05:54:59.206Z,16.59
2023-07-31T05:57:37.189Z,16.27
2023-07-31T06:03:40.107Z,17.63
2023-07-31T06:06:28.217Z,17.07
2023-07-31T06:09:30.991Z,16.26
2023-07-31T06:12:00.387Z,15.76
2023-07-31T06:30:15.226Z,16.32
2023-07-31T06:33:21.879Z,16.25
2023-07-31T06:35:57.410Z,16.30
2023-07-31T06:38:31.769Z,17.18
2023-07-31T06:41:04.436Z,16.78
2023-07-31T06:43:34.272Z,16.11
2023-07-31T06:46:07.042Z,17.25
2023-07-31T06:48:38.021Z,17.48
2023-07-31T06:51:07.207Z,17.42
2023-07-31T06:54:47.470Z,17.83
2023-07-31T06:57:29.173Z,17.85
2023-07-31T06:59:55.984Z,17.21
2023-07-31T07:02:35.761Z,15.96
2023-07-31T07:08:57.259Z,16.84
2023-07-31T07:11:24.289Z,16.97
2023-07-31T07:13:53.581Z,17.52
2023-07-31T07:16:20.495Z,16.48
2023-07-31T07:20:17.330Z,17.94
2023-07-31T07:22:47.018Z,16.50
2023-07-31T07:25:13.861Z,16.67
2023-07-31T07:27:49.963Z,17.76
2023-07-31T07:30:17.136Z,16.79
2023-07-31T07:32:57.447Z,16.65
2023-07-31T07:35:27.805Z,17.11
2023-07-31T07:37:54.973Z,16.72
2023-07-31T07:40:22.516Z,16.70
2023-07-31T07:42:53.760Z,16.44
2023-07-31T07:45:20.748Z,16.82
2023-07-31T07:47:47.760Z,17.99
2023-07-31T07:50:14.770Z,16.46
2023-07-31T07:52:41.973Z,17.18
2023-07-31T07:55:09.378Z,17.09
2023-07-31T07:57:36.105Z,17.39
2023-07-31T08:00:03.605Z,17.24
2023-07-31T08:02:30.714Z,16.97
2023-07-31T08:04:57.820Z,17.92
2023-07-31T08:07:24.826Z,18.11
2023-07-31T08:09:51.713Z,17.29
2023-07-31T08:12:18.867Z,17.93
2023-07-31T08:14:46.189Z,18.21
2023-07-31T08:17:13.039Z,17.06
2023-07-31T08:19:51.136Z,17.89
2023-07-31T08:22:18.104Z,17.95
2023-07-31T08:24:45.032Z,17.09
2023-07-31T08:27:13.918Z,17.24
2023-07-31T08:29:43.155Z,18.22
2023-07-31T08:32:11.273Z,16.89
2023-07-31T08:34:40.295Z,18.18
2023-07-31T08:37:09.272Z,18.26
2023-07-31T08:39:40.877Z,18.08
2023-07-31T08:42:10.720Z,17.92
2023-07-31T08:44:38.617Z,18.10
2023-07-31T08:47:08.804Z,18.36
2023-07-31T08:49:36.173Z,18.33
2023-07-31T08:52:02.930Z,17.26
2023-07-31T08:54:34.183Z,18.41
2023-07-31T08:57:01.676Z,17.80
2023-07-31T08:59:34.557Z,18.43
2023-07-31T09:02:07.427Z,18.44
2023-07-31T09:04:37.326Z,18.40
2023-07-31T09:07:05.615Z,18.15
2023-07-31T09:09:36.462Z,17.72
2023-07-31T09:16:37.349Z,17.52
2023-07-31T09:20:29.786Z,17.03
2023-07-31T09:23:12.031Z,18.55
2023-07-31T09:27:20.431Z,18.51
2023-07-31T09:30:00.796Z,18.35
2023-07-31T09:32:39.630Z,18.25
2023-07-31T09:35:22.614Z,17.41
2023-07-31T09:38:01.316Z,18.21
2023-07-31T09:40:32.872Z,18.60
2023-07-31T09:43:06.055Z,18.64
2023-07-31T09:45:41.613Z,18.53
2023-07-31T09:48:11.441Z,17.83
2023-07-31T09:50:40.486Z,17.75
2023-07-31T09:53:13.110Z,18.67
2023-07-31T09:55:41.197Z,18.30
2023-07-31T09:58:11.769Z,18.79
2023-07-31T10:00:38.829Z,18.78
2023-07-31T10:03:07.568Z,18.78
2023-07-31T10:05:37.406Z,18.96
2023-07-31T10:08:07.502Z,19.04
2023-07-31T10:10:37.011Z,18.61
2023-07-31T10:13:08.558Z,19.05
2023-07-31T10:19:00.842Z,18.78
2023-07-31T10:21:27.726Z,17.80
2023-07-31T10:24:24.523Z,18.79
2023-07-31T10:26:53.378Z,17.86
2023-07-31T10:29:23.295Z,18.55
2023-07-31T10:31:56.425Z,19.34
2023-07-31T10:34:23.097Z,19.15
2023-07-31T10:37:09.763Z,19.27
2023-07-31T10:39:39.392Z,19.09
2023-07-31T10:42:14.014Z,19.09
2023-07-31T10:44:49.904Z,19.44
2023-07-31T10:47:18.453Z,18.98
2023-07-31T10:49:48.609Z,19.35
2023-07-31T10:52:49.919Z,19.28
2023-07-31T10:55:35.363Z,18.69
2023-07-31T11:02:00.927Z,18.05
2023-07-31T11:04:44.478Z,19.58
2023-07-31T11:07:14.634Z,19.64
2023-07-31T11:09:41.582Z,18.27
2023-07-31T11:12:09.095Z,19.48
2023-07-31T11:14:36.115Z,19.57
2023-07-31T11:17:08.139Z,19.43
2023-07-31T11:19:50.643Z,19.46
2023-07-31T11:30:19.744Z,19.38
2023-07-31T11:33:04.757Z,19.03
2023-07-31T11:35:44.691Z,18.88
2023-07-31T11:38:32.582Z,18.79
2023-07-31T11:41:06.087Z,19.51
2023-07-31T11:43:37.894Z,19.94
2023-07-31T11:46:07.216Z,18.70
2023-07-31T11:48:39.266Z,18.62
2023-07-31T11:51:12.996Z,19.66
2023-07-31T11:53:44.572Z,18.98
2023-07-31T11:56:18.048Z,19.52
2023-07-31T11:58:49.175Z,19.54
2023-07-31T12:01:19.360Z,19.77
2023-07-31T12:03:47.842Z,19.94
2023-07-31T12:06:23.520Z,18.56
2023-07-31T12:08:50.727Z,19.95
2023-07-31T12:11:19.283Z,18.64
2023-07-31T12:13:48.450Z,19.15
2023-07-31T12:16:15.626Z,19.96
2023-07-31T12:18:42.616Z,19.80
2023-07-31T12:21:12.738Z,19.42
2023-07-31T12:23:39.802Z,19.94
2023-07-31T12:26:13.758Z,19.96
2023-07-31T12:28:51.304Z,19.38
2023-07-31T12:31:20.310Z,18.78
2023-07-31T12:33:51.204Z,19.84
2023-07-31T12:36:22.849Z,20.02
2023-07-31T12:38:50.915Z,19.57
2023-07-31T12:41:18.674Z,19.47
2023-07-31T12:43:46.554Z,19.10
2023-07-31T12:46:15.165Z,19.95
2023-07-31T12:48:42.890Z,19.14
2023-07-31T12:51:11.715Z,19.33
2023-07-31T12:53:38.579Z,20.20
2023-07-31T12:56:05.977Z,19.04
2023-07-31T12:58:32.909Z,20.24
2023-07-31T13:01:03.436Z,19.31
2023-07-31T13:03:30.839Z,19.11
2023-07-31T13:05:59.804Z,19.35
2023-07-31T13:08:26.587Z,20.09
2023-07-31T13:10:53.397Z,20.09
2023-07-31T13:13:20.125Z,20.14
2023-07-31T13:15:47.157Z,20.22
2023-07-31T13:18:16.014Z,20.25
2023-07-31T13:20:42.727Z,20.27
2023-07-31T13:23:09.348Z,20.33
2023-07-31T13:25:36.351Z,20.35
2023-07-31T13:28:03.785Z,20.27
2023-07-31T13:30:31.015Z,19.94
2023-07-31T13:32:57.778Z,20.13
2023-07-31T13:35:24.665Z,20.19
2023-07-31T13:37:51.348Z,20.45
2023-07-31T13:40:20.962Z,20.12
2023-07-31T13:42:49.070Z,20.28
2023-07-31T13:45:15.953Z,20.41
2023-07-31T13:47:42.707Z,20.54
2023-07-31T13:50:12.198Z,20.53
2023-07-31T13:52:38.863Z,20.36
2023-07-31T13:55:08.333Z,20.43
2023-07-31T13:57:35.942Z,20.38
2023-07-31T14:00:03.368Z,20.45
2023-07-31T14:02:30.190Z,20.19
2023-07-31T14:04:56.867Z,20.34
2023-07-31T14:07:35.693Z,20.24
2023-07-31T14:10:05.263Z,20.60
2023-07-31T14:12:42.623Z,20.49
2023-07-31T14:15:10.884Z,19.58
2023-07-31T14:17:39.970Z,19.65
2023-07-31T14:20:07.732Z,20.25
2023-07-31T14:22:35.232Z,20.50
2023-07-31T14:25:02.930Z,20.49
2023-07-31T14:27:29.675Z,20.08
2023-07-31T14:29:56.467Z,19.46
2023-07-31T14:33:51.595Z,20.05
2023-07-31T14:35:36.737Z,20.46
2023-07-31T14:38:03.463Z,19.47
2023-07-31T14:40:32.610Z,20.32
2023-07-31T14:43:04.819Z,19.96
2023-07-31T14:45:31.517Z,19.90
2023-07-31T14:47:58.286Z,20.25
2023-07-31T14:50:26.550Z,20.35
2023-07-31T14:53:00.775Z,20.27
2023-07-31T14:55:29.943Z,20.39
2023-07-31T14:57:56.621Z,20.27
2023-07-31T15:00:25.715Z,20.31
2023-07-31T15:02:52.498Z,20.17
2023-07-31T15:05:19.569Z,20.46
2023-07-31T15:07:46.279Z,19.77
2023-07-31T15:10:12.925Z,20.42
2023-07-31T15:12:44.218Z,20.31
2023-07-31T15:15:11.142Z,18.96
2023-07-31T15:17:37.918Z,20.10
2023-07-31T15:20:05.225Z,19.62
2023-07-31T15:22:31.942Z,20.22
2023-07-31T15:25:03.476Z,20.20
2023-07-31T15:27:32.349Z,20.11
2023-07-31T15:30:01.776Z,20.22
2023-07-31T16:00:49.695Z,18.60
2023-07-31T16:03:35.569Z,19.59
2023-07-31T16:06:04.871Z,19.16
2023-07-31T16:08:49.483Z,20.05
2023-07-31T16:11:21.098Z,19.00
2023-07-31T16:14:05.865Z,19.07
2023-07-31T16:16:35.569Z,20.01
2023-07-31T16:19:10.589Z,19.80
2023-07-31T16:25:34.992Z,19.08
2023-07-31T16:28:22.129Z,19.59
2023-07-31T16:31:00.452Z,19.18
2023-07-31T16:33:56.064Z,18.72
2023-07-31T16:36:27.915Z,18.86
2023-07-31T16:38:57.620Z,19.46
2023-07-31T16:41:27.096Z,19.50
2023-07-31T16:44:00.408Z,19.46
2023-07-31T16:46:27.202Z,19.27
2023-07-31T16:49:04.428Z,19.73
2023-07-31T16:51:34.625Z,19.37
2023-07-31T16:54:03.741Z,18.99
2023-07-31T16:56:32.910Z,18.93
2023-07-31T16:59:03.605Z,18.98
2023-07-31T17:01:33.347Z,18.95
2023-07-31T17:04:01.312Z,19.28
2023-07-31T17:06:32.709Z,19.39
2023-07-31T17:08:59.394Z,18.45
2023-07-31T17:11:26.410Z,19.54
2023-07-31T17:13:53.447Z,19.23
2023-07-31T17:16:23.247Z,19.60
2023-07-31T17:18:49.979Z,18.80
2023-07-31T17:21:16.659Z,19.16
2023-07-31T17:23:43.378Z,19.10
2023-07-31T17:26:13.454Z,19.55
2023-07-31T17:28:44.737Z,19.18
2023-07-31T17:31:14.436Z,19.47
2023-07-31T17:33:47.208Z,19.52
2023-07-31T17:36:18.395Z,18.23
2023-07-31T17:38:49.593Z,17.88
2023-07-31T17:41:57.783Z,18.52
2023-07-31T17:48:14.165Z,18.42
2023-07-31T17:51:14.503Z,19.32
2023-07-31T17:54:30.082Z,18.26
2023-07-31T18:00:48.522Z,18.45
2023-07-31T18:03:41.261Z,18.31
2023-07-31T18:06:19.404Z,18.34
2023-07-31T18:09:03.137Z,18.03
2023-07-31T18:11:38.163Z,19.18
2023-07-31T18:25:28.134Z,18.37
2023-07-31T18:32:26.338Z,17.47
2023-07-31T18:34:41.848Z,19.22
2023-07-31T18:37:11.306Z,19.21
2023-07-31T18:40:18.257Z,17.25
2023-07-31T18:55:35.230Z,19.12
2023-07-31T19:16:11.727Z,18.92
2023-07-31T19:18:40.698Z,18.87
2023-07-31T19:21:08.767Z,18.85
2023-07-31T19:23:45.733Z,18.28
2023-07-31T19:26:13.540Z,18.46
2023-07-31T19:28:45.249Z,18.53
2023-07-31T19:31:44.842Z,18.35
2023-07-31T19:34:14.670Z,17.64
2023-07-31T19:36:43.892Z,17.68
2023-07-31T19:40:01.585Z,18.40
2023-07-31T19:42:47.672Z,18.39
2023-07-31T19:46:04.857Z,18.34
2023-07-31T20:00:34.667Z,17.52
2023-07-31T20:03:15.078Z,17.69
2023-07-31T20:05:56.980Z,18.04
2023-07-31T20:08:23.837Z,17.50
2023-07-31T20:10:51.169Z,16.85
2023-07-31T20:13:18.069Z,18.18
2023-07-31T20:20:19.782Z,16.57
2023-07-31T20:26:58.374Z,17.41
2023-07-31T20:29:52.006Z,18.05
2023-07-31T20:32:24.968Z,17.58
2023-07-31T20:34:52.155Z,18.06
2023-07-31T20:37:22.354Z,16.96
2023-07-31T20:39:55.294Z,16.86
2023-07-31T20:42:22.191Z,17.55
2023-07-31T20:44:49.137Z,17.79
2023-07-31T20:47:20.219Z,16.66
2023-07-31T20:49:47.035Z,17.78
2023-07-31T20:52:14.074Z,17.22
2023-07-31T20:54:41.562Z,17.51
2023-07-31T20:57:08.293Z,17.80
2023-07-31T20:59:41.119Z,17.83
2023-07-31T21:02:08.558Z,17.32
2023-07-31T21:04:38.034Z,17.59
2023-07-31T21:07:05.562Z,17.79
2023-07-31T21:09:36.268Z,16.79
2023-07-31T21:12:03.136Z,17.69
2023-07-31T21:14:30.083Z,17.36
2023-07-31T21:16:59.289Z,17.98
2023-07-31T21:19:26.110Z,17.75
2023-07-31T21:21:52.902Z,16.75
2023-07-31T21:24:19.767Z,17.68
2023-07-31T21:26:46.510Z,16.93
2023-07-31T21:29:15.760Z,17.03
2023-07-31T21:31:45.105Z,17.04
2023-07-31T21:34:12.288Z,17.92
2023-07-31T21:36:39.629Z,16.90
2023-07-31T21:39:06.818Z,17.65
2023-07-31T21:41:38.468Z,17.92
2023-07-31T21:44:07.835Z,17.65
2023-07-31T21:46:34.713Z,17.47
2023-07-31T21:49:01.642Z,17.77
2023-07-31T21:51:28.371Z,17.90
2023-07-31T21:53:55.160Z,17.79
2023-07-31T21:56:22.357Z,17.83
2023-07-31T21:58:49.358Z,17.81
2023-07-31T22:01:18.494Z,17.86
2023-07-31T22:03:45.365Z,17.86
2023-07-31T22:06:12.301Z,17.57
2023-07-31T22:08:39.262Z,16.98
2023-07-31T22:11:06.028Z,17.74
2023-07-31T22:13:35.180Z,17.70
2023-07-31T22:16:02.550Z,17.70
2023-07-31T22:18:31.846Z,17.17
2023-07-31T22:20:58.492Z,17.47
2023-07-31T22:23:25.305Z,17.67
2023-07-31T22:25:52.548Z,16.94
2023-07-31T22:28:22.002Z,17.74
2023-07-31T22:30:49.507Z,17.79
2023-07-31T22:33:16.425Z,16.95
2023-07-31T22:35:43.318Z,17.76
2023-07-31T22:38:10.145Z,17.27
2023-07-31T22:40:39.098Z,16.92
2023-07-31T22:43:06.067Z,17.76
2023-07-31T22:45:32.889Z,17.75
2023-07-31T22:48:02.091Z,17.27
2023-07-31T22:50:29.066Z,17.73
2023-07-31T22:52:56.659Z,17.24
2023-07-31T22:55:23.352Z,17.45
2023-07-31T22:57:53.884Z,17.53
2023-07-31T23:00:20.584Z,16.73
2023-07-31T23:02:47.676Z,17.52
2023-07-31T23:05:16.938Z,16.82
2023-07-31T23:07:43.863Z,17.05
2023-07-31T23:10:15.316Z,17.49
2023-07-31T23:12:44.446Z,17.27
2023-07-31T23:15:13.567Z,17.66
2023-07-31T23:17:42.996Z,17.73
2023-07-31T23:20:10.306Z,17.36
2023-07-31T23:22:38.712Z,17.71
2023-07-31T23:25:05.959Z,17.13
2023-07-31T23:27:32.969Z,17.71
2023-07-31T23:29:59.986Z,17.45
2023-07-31T23:32:26.936Z,16.37
2023-07-31T23:34:53.890Z,15.97
2023-07-31T23:37:20.891Z,17.30
2023-07-31T23:39:47.741Z,17.03
2023-07-31T23:42:14.908Z,16.43
2023-07-31T23:44:42.270Z,17.37
2023-07-31T23:47:09.305Z,17.66
2023-07-31T23:49:36.034Z,16.26
2023-07-31T23:52:02.871Z,17.64
2023-07-31T23:54:29.973Z,17.37
2023-07-31T23:56:56.905Z,17.65
2023-07-31T23:59:23.919Z,17.55
